地図

経路データ

SID SEASON NUMBER BASIN SUBBASIN NAME ISO_TIME NATURE LAT LON WMO_WIND WMO_PRES WMO_AGENCY TRACK_TYPE DIST2LAND LANDFALL IFLAG USA_AGENCY USA_ATCF_ID USA_LAT USA_LON USA_RECORD USA_STATUS USA_WIND USA_PRES USA_SSHS USA_R34_NE USA_R34_SE USA_R34_SW USA_R34_NW USA_R50_NE USA_R50_SE USA_R50_SW USA_R50_NW USA_R64_NE USA_R64_SE USA_R64_SW USA_R64_NW USA_POCI USA_ROCI USA_RMW USA_EYE TOKYO_LAT TOKYO_LON TOKYO_GRADE TOKYO_WIND TOKYO_PRES TOKYO_R50_DIR TOKYO_R50_LONG TOKYO_R50_SHORT TOKYO_R30_DIR TOKYO_R30_LONG TOKYO_R30_SHORT TOKYO_LAND CMA_LAT CMA_LON CMA_CAT CMA_WIND CMA_PRES HKO_LAT HKO_LON HKO_CAT HKO_WIND HKO_PRES NEWDELHI_LAT NEWDELHI_LON NEWDELHI_GRADE NEWDELHI_WIND NEWDELHI_PRES NEWDELHI_CI NEWDELHI_DP NEWDELHI_POCI REUNION_LAT REUNION_LON REUNION_TYPE REUNION_WIND REUNION_PRES REUNION_TNUM REUNION_CI REUNION_RMW REUNION_R34_NE REUNION_R34_SE REUNION_R34_SW REUNION_R34_NW REUNION_R50_NE REUNION_R50_SE REUNION_R50_SW REUNION_R50_NW REUNION_R64_NE REUNION_R64_SE REUNION_R64_SW REUNION_R64_NW BOM_LAT BOM_LON BOM_TYPE BOM_WIND BOM_PRES BOM_TNUM BOM_CI BOM_RMW BOM_R34_NE BOM_R34_SE BOM_R34_SW BOM_R34_NW BOM_R50_NE BOM_R50_SE BOM_R50_SW BOM_R50_NW BOM_R64_NE BOM_R64_SE BOM_R64_SW BOM_R64_NW BOM_ROCI BOM_POCI BOM_EYE BOM_POS_METHOD BOM_PRES_METHOD NADI_LAT NADI_LON NADI_CAT NADI_WIND NADI_PRES WELLINGTON_LAT WELLINGTON_LON WELLINGTON_WIND WELLINGTON_PRES DS824_LAT DS824_LON DS824_STAGE DS824_WIND DS824_PRES TD9636_LAT TD9636_LON TD9636_STAGE TD9636_WIND TD9636_PRES TD9635_LAT TD9635_LON TD9635_WIND TD9635_PRES TD9635_ROCI NEUMANN_LAT NEUMANN_LON NEUMANN_CLASS NEUMANN_WIND NEUMANN_PRES MLC_LAT MLC_LON MLC_CLASS MLC_WIND MLC_PRES USA_GUST BOM_GUST BOM_GUST_PER REUNION_GUST REUNION_GUST_PER USA_SEAHGT USA_SEARAD_NE USA_SEARAD_SE USA_SEARAD_SW USA_SEARAD_NW STORM_SPEED STORM_DIR
1909260N22135 1909 50 WP MM NOT_NAMED 1909-09-16 16:00:00 NR 21.5000 135.100 main 1147 1095 __________O___ -1 21.5000 135.100 7 25 287
1909260N22135 1909 50 WP MM NOT_NAMED 1909-09-16 18:00:00 NR 21.7482 134.230 main 1095 1017 __________P___ -1 21.7482 134.230 7 25 287
1909260N22135 1909 50 WP MM NOT_NAMED 1909-09-16 21:00:00 NR 22.1041 132.947 main 1017 965 __________P___ -1 22.1041 132.947 7 24 286
1909260N22135 1909 50 WP MM NOT_NAMED 1909-09-17 00:00:00 NR 22.4299 131.732 main 965 908 __________P___ -1 22.4299 131.732 7 22 286
1909260N22135 1909 50 WP MM NOT_NAMED 1909-09-17 03:00:00 NR 22.7154 130.633 main 908 885 __________P___ -1 22.7154 130.633 7 21 286
1909260N22135 1909 50 WP MM NOT_NAMED 1909-09-17 04:00:00 NR 22.8000 130.300 main 875 810 __________O___ -1 22.8000 130.300 7 18 285
1909260N22135 1909 50 WP MM NOT_NAMED 1909-09-17 06:00:00 NR 22.9526 129.690 main 810 728 __________P___ -1 22.9526 129.690 7 16 285
1909260N22135 1909 50 WP MM NOT_NAMED 1909-09-17 09:00:00 NR 23.1469 128.891 main 728 653 __________P___ -1 23.1469 128.891 7 14 284
1909260N22135 1909 50 WP MM NOT_NAMED 1909-09-17 12:00:00 NR 23.3104 128.184 main 653 579 __________P___ -1 23.3104 128.184 7 13 284
1909260N22135 1909 50 WP MM NOT_NAMED 1909-09-17 15:00:00 NR 23.4545 127.521 main 579 559 __________P___ -1 23.4545 127.521 7 13 283
1909260N22135 1909 50 WP MM NOT_NAMED 1909-09-17 16:00:00 NR 23.5000 127.300 main 559 507 __________O___ -1 23.5000 127.300 2 13 282
1909260N22135 1909 50 WP MM NOT_NAMED 1909-09-17 18:00:00 NR 23.5936 126.827 main 507 435 __________P___ -1 23.5936 126.827 2 13 282
1909260N22135 1909 50 WP MM NOT_NAMED 1909-09-17 21:00:00 NR 23.7222 126.129 main 435 363 __________P___ -1 23.7222 126.129 2 13 281
1909260N22135 1909 50 WP MM NOT_NAMED 1909-09-18 00:00:00 NR 23.8423 125.437 main 363 289 __________P___ -1 23.8423 125.437 2 13 281
1909260N22135 1909 50 WP MM NOT_NAMED 1909-09-18 03:00:00 NR 23.9602 124.737 main 289 269 __________P___ -1 23.9602 124.737 2 13 280
1909260N22135 1909 50 WP MM NOT_NAMED 1909-09-18 04:00:00 NR 24.0000 124.500 main 269 217 __________O___ -1 24.0000 124.500 2 14 281
1909260N22135 1909 50 WP MM NOT_NAMED 1909-09-18 06:00:00 NR 24.0934 124.009 main 217 145 __________P___ -1 24.0934 124.009 2 14 282
1909260N22135 1909 50 WP MM NOT_NAMED 1909-09-18 09:00:00 NR 24.2340 123.260 main 145 61 __________P___ -1 24.2340 123.260 2 14 281
1909260N22135 1909 50 WP MM NOT_NAMED 1909-09-18 12:00:00 NR 24.3642 122.504 main 61 0 __________P___ -1 24.3642 122.504 2 14 280
1909260N22135 1909 50 WP MM NOT_NAMED 1909-09-18 15:00:00 NR 24.4715 121.749 main 0 0 __________P___ -1 24.4715 121.749 2 14 278
1909260N22135 1909 50 WP MM NOT_NAMED 1909-09-18 16:00:00 NR 24.5000 121.500 main 0 0 __________O___ -1 24.5000 121.500 2 14 276
1909260N22135 1909 50 WP MM NOT_NAMED 1909-09-18 18:00:00 NR 24.5446 121.006 main 0 0 __________P___ -1 24.5446 121.006 2 13 274
1909260N22135 1909 50 WP MM NOT_NAMED 1909-09-18 21:00:00 NR 24.5848 120.276 main 37 46 __________P___ -1 24.5848 120.276 2 13 272
1909260N22135 1909 50 WP MM NOT_NAMED 1909-09-19 00:00:00 NR 24.6008 119.554 main 68 10 __________P___ -1 24.6008 119.554 2 13 271
1909260N22135 1909 50 WP MM NOT_NAMED 1909-09-19 03:00:00 NR 24.6016 118.838 main 10 0 __________P___ -1 24.6016 118.838 2 13 270
1909260N22135 1909 50 WP MM NOT_NAMED 1909-09-19 04:00:00 NR 24.6000 118.600 main 0 __________O___ -1 24.6000 118.600 2 13 270

デジタル台風データ・検索

IBTrACS Databaseについて

本データベースは、米国NOAAが公開する1842年以降の世界の熱帯低気圧のベストトラックデータアーカイブInternational Best Track Archive for Climate Stewardship (IBTrACS)を、ウェブで閲覧しやすい形式に変換したものです。

最終更新日:2021-10-08